sensor_id;sensor_type;location;lat;lon;timestamp;P1;durP1;ratioP1;P2;durP2;ratioP2
11486;SDS011;10510;47.942;9.442;2023-04-15T00:00:12;6.85;;;1.30;;
11486;SDS011;10510;47.942;9.442;2023-04-15T00:02:18;5.75;;;1.85;;
11486;SDS011;10510;47.942;9.442;2023-04-15T00:04:18;5.68;;;1.92;;
11486;SDS011;10510;47.942;9.442;2023-04-15T00:06:20;3.67;;;1.17;;
11486;SDS011;10510;47.942;9.442;2023-04-15T00:08:20;5.43;;;1.92;;
11486;SDS011;10510;47.942;9.442;2023-04-15T00:10:20;4.28;;;1.65;;
11486;SDS011;10510;47.942;9.442;2023-04-15T00:12:21;3.90;;;1.60;;
11486;SDS011;10510;47.942;9.442;2023-04-15T00:14:21;4.15;;;1.20;;
11486;SDS011;10510;47.942;9.442;2023-04-15T00:16:22;2.72;;;1.80;;
11486;SDS011;10510;47.942;9.442;2023-04-15T00:18:22;6.68;;;1.75;;
11486;SDS011;10510;47.942;9.442;2023-04-15T00:20:23;2.80;;;1.40;;
11486;SDS011;10510;47.942;9.442;2023-04-15T00:22:24;4.72;;;2.70;;
11486;SDS011;10510;47.942;9.442;2023-04-15T00:24:25;5.95;;;1.50;;
11486;SDS011;10510;47.942;9.442;2023-04-15T00:26:26;4.45;;;1.58;;
11486;SDS011;10510;47.942;9.442;2023-04-15T00:28:26;6.05;;;1.35;;
11486;SDS011;10510;47.942;9.442;2023-04-15T00:30:27;5.57;;;1.83;;
11486;SDS011;10510;47.942;9.442;2023-04-15T00:32:27;5.38;;;1.92;;
11486;SDS011;10510;47.942;9.442;2023-04-15T00:34:28;3.63;;;2.00;;
11486;SDS011;10510;47.942;9.442;2023-04-15T00:36:28;6.47;;;1.27;;
11486;SDS011;10510;47.942;9.442;2023-04-15T00:38:28;10.05;;;1.80;;
11486;SDS011;10510;47.942;9.442;2023-04-15T00:40:29;6.38;;;1.67;;
11486;SDS011;10510;47.942;9.442;2023-04-15T00:42:29;4.18;;;2.08;;
11486;SDS011;10510;47.942;9.442;2023-04-15T00:44:30;4.50;;;1.55;;
11486;SDS011;10510;47.942;9.442;2023-04-15T00:46:32;5.22;;;2.00;;
11486;SDS011;10510;47.942;9.442;2023-04-15T00:48:34;7.32;;;1.83;;
11486;SDS011;10510;47.942;9.442;2023-04-15T00:50:35;3.85;;;1.98;;
11486;SDS011;10510;47.942;9.442;2023-04-15T00:52:36;5.38;;;2.25;;
11486;SDS011;10510;47.942;9.442;2023-04-15T00:54:36;7.13;;;1.88;;
11486;SDS011;10510;47.942;9.442;2023-04-15T00:56:37;2.40;;;1.33;;
11486;SDS011;10510;47.942;9.442;2023-04-15T00:58:38;3.70;;;1.67;;
11486;SDS011;10510;47.942;9.442;2023-04-15T01:00:38;6.30;;;1.50;;
11486;SDS011;10510;47.942;9.442;2023-04-15T01:02:39;3.58;;;1.70;;
11486;SDS011;10510;47.942;9.442;2023-04-15T01:04:40;3.00;;;1.58;;
11486;SDS011;10510;47.942;9.442;2023-04-15T01:06:41;5.22;;;1.63;;
11486;SDS011;10510;47.942;9.442;2023-04-15T01:08:41;3.50;;;1.65;;
11486;SDS011;10510;47.942;9.442;2023-04-15T01:10:42;4.68;;;2.00;;
11486;SDS011;10510;47.942;9.442;2023-04-15T01:12:42;4.50;;;2.00;;
11486;SDS011;10510;47.942;9.442;2023-04-15T01:14:43;7.38;;;2.10;;
11486;SDS011;10510;47.942;9.442;2023-04-15T01:16:44;2.95;;;1.65;;
11486;SDS011;10510;47.942;9.442;2023-04-15T01:18:45;5.60;;;2.10;;
11486;SDS011;10510;47.942;9.442;2023-04-15T01:20:46;3.28;;;2.05;;
11486;SDS011;10510;47.942;9.442;2023-04-15T01:22:46;5.25;;;2.15;;
11486;SDS011;10510;47.942;9.442;2023-04-15T01:24:54;4.65;;;1.88;;
11486;SDS011;10510;47.942;9.442;2023-04-15T01:27:01;4.07;;;2.13;;
11486;SDS011;10510;47.942;9.442;2023-04-15T01:29:01;5.43;;;2.03;;
11486;SDS011;10510;47.942;9.442;2023-04-15T01:31:11;3.33;;;1.67;;
11486;SDS011;10510;47.942;9.442;2023-04-15T01:33:13;3.42;;;1.63;;
11486;SDS011;10510;47.942;9.442;2023-04-15T01:35:13;4.50;;;1.90;;
11486;SDS011;10510;47.942;9.442;2023-04-15T01:37:14;5.10;;;1.83;;
11486;SDS011;10510;47.942;9.442;2023-04-15T01:39:14;3.65;;;1.67;;
11486;SDS011;10510;47.942;9.442;2023-04-15T01:41:14;7.50;;;1.70;;
11486;SDS011;10510;47.942;9.442;2023-04-15T01:43:15;5.35;;;1.50;;
11486;SDS011;10510;47.942;9.442;2023-04-15T01:45:15;2.70;;;1.70;;
11486;SDS011;10510;47.942;9.442;2023-04-15T01:47:16;5.20;;;1.88;;
11486;SDS011;10510;47.942;9.442;2023-04-15T01:49:16;9.18;;;1.63;;
11486;SDS011;10510;47.942;9.442;2023-04-15T01:51:16;6.07;;;1.45;;
11486;SDS011;10510;47.942;9.442;2023-04-15T01:53:17;3.95;;;1.60;;
11486;SDS011;10510;47.942;9.442;2023-04-15T01:55:17;3.17;;;1.48;;
11486;SDS011;10510;47.942;9.442;2023-04-15T01:57:17;3.03;;;1.17;;
11486;SDS011;10510;47.942;9.442;2023-04-15T01:59:18;6.82;;;1.85;;
11486;SDS011;10510;47.942;9.442;2023-04-15T02:01:18;6.35;;;1.50;;
11486;SDS011;10510;47.942;9.442;2023-04-15T02:03:18;5.18;;;1.45;;
11486;SDS011;10510;47.942;9.442;2023-04-15T02:05:19;3.05;;;1.67;;
11486;SDS011;10510;47.942;9.442;2023-04-15T02:07:19;3.60;;;1.40;;
11486;SDS011;10510;47.942;9.442;2023-04-15T02:09:19;4.63;;;1.25;;
11486;SDS011;10510;47.942;9.442;2023-04-15T02:11:20;2.50;;;1.50;;
11486;SDS011;10510;47.942;9.442;2023-04-15T02:13:20;2.67;;;1.30;;
11486;SDS011;10510;47.942;9.442;2023-04-15T02:15:20;2.70;;;1.50;;
11486;SDS011;10510;47.942;9.442;2023-04-15T02:17:20;9.05;;;1.73;;
11486;SDS011;10510;47.942;9.442;2023-04-15T02:19:21;3.75;;;2.03;;
11486;SDS011;10510;47.942;9.442;2023-04-15T02:21:21;4.60;;;1.48;;
11486;SDS011;10510;47.942;9.442;2023-04-15T02:23:21;4.95;;;1.77;;
11486;SDS011;10510;47.942;9.442;2023-04-15T02:25:22;4.72;;;1.33;;
11486;SDS011;10510;47.942;9.442;2023-04-15T02:27:22;1.90;;;1.20;;
11486;SDS011;10510;47.942;9.442;2023-04-15T02:29:22;5.10;;;1.90;;
11486;SDS011;10510;47.942;9.442;2023-04-15T02:31:22;5.60;;;2.10;;
11486;SDS011;10510;47.942;9.442;2023-04-15T02:33:23;9.02;;;2.03;;
11486;SDS011;10510;47.942;9.442;2023-04-15T02:35:24;2.00;;;1.30;;
11486;SDS011;10510;47.942;9.442;2023-04-15T02:37:24;5.70;;;1.48;;
11486;SDS011;10510;47.942;9.442;2023-04-15T02:39:27;4.25;;;1.48;;
11486;SDS011;10510;47.942;9.442;2023-04-15T02:41:28;7.15;;;2.05;;
11486;SDS011;10510;47.942;9.442;2023-04-15T02:43:29;4.45;;;2.13;;
11486;SDS011;10510;47.942;9.442;2023-04-15T02:45:29;2.30;;;1.63;;
11486;SDS011;10510;47.942;9.442;2023-04-15T02:47:29;4.35;;;1.85;;
11486;SDS011;10510;47.942;9.442;2023-04-15T02:49:30;4.40;;;2.30;;
11486;SDS011;10510;47.942;9.442;2023-04-15T02:51:30;6.93;;;2.00;;
11486;SDS011;10510;47.942;9.442;2023-04-15T02:53:31;5.68;;;1.90;;
11486;SDS011;10510;47.942;9.442;2023-04-15T02:55:31;6.25;;;1.60;;
11486;SDS011;10510;47.942;9.442;2023-04-15T02:57:31;3.17;;;1.85;;
11486;SDS011;10510;47.942;9.442;2023-04-15T02:59:32;3.95;;;1.63;;
11486;SDS011;10510;47.942;9.442;2023-04-15T03:01:32;7.20;;;1.80;;
11486;SDS011;10510;47.942;9.442;2023-04-15T03:03:32;5.20;;;1.85;;
11486;SDS011;10510;47.942;9.442;2023-04-15T03:05:33;4.07;;;1.70;;
11486;SDS011;10510;47.942;9.442;2023-04-15T03:07:33;5.82;;;2.03;;
11486;SDS011;10510;47.942;9.442;2023-04-15T03:09:33;4.30;;;1.77;;
11486;SDS011;10510;47.942;9.442;2023-04-15T03:11:34;3.55;;;1.73;;
11486;SDS011;10510;47.942;9.442;2023-04-15T03:13:39;1.80;;;1.35;;
11486;SDS011;10510;47.942;9.442;2023-04-15T03:15:40;2.88;;;1.33;;
11486;SDS011;10510;47.942;9.442;2023-04-15T03:17:41;6.50;;;2.03;;
11486;SDS011;10510;47.942;9.442;2023-04-15T03:19:41;5.43;;;1.70;;
11486;SDS011;10510;47.942;9.442;2023-04-15T03:21:41;3.55;;;1.75;;
11486;SDS011;10510;47.942;9.442;2023-04-15T03:23:41;3.97;;;2.22;;
11486;SDS011;10510;47.942;9.442;2023-04-15T03:25:43;3.45;;;1.70;;
11486;SDS011;10510;47.942;9.442;2023-04-15T03:27:44;6.85;;;2.33;;
11486;SDS011;10510;47.942;9.442;2023-04-15T03:29:44;4.38;;;1.58;;
11486;SDS011;10510;47.942;9.442;2023-04-15T03:31:44;5.88;;;1.98;;
11486;SDS011;10510;47.942;9.442;2023-04-15T03:33:45;4.00;;;1.55;;
11486;SDS011;10510;47.942;9.442;2023-04-15T03:35:45;7.32;;;2.22;;
11486;SDS011;10510;47.942;9.442;2023-04-15T03:37:45;5.85;;;1.67;;
11486;SDS011;10510;47.942;9.442;2023-04-15T03:39:48;3.65;;;1.85;;
11486;SDS011;10510;47.942;9.442;2023-04-15T03:41:48;4.13;;;1.80;;
11486;SDS011;10510;47.942;9.442;2023-04-15T03:43:48;5.50;;;1.67;;
11486;SDS011;10510;47.942;9.442;2023-04-15T03:45:50;3.15;;;1.58;;
11486;SDS011;10510;47.942;9.442;2023-04-15T03:47:51;4.80;;;2.13;;
11486;SDS011;10510;47.942;9.442;2023-04-15T03:49:51;5.68;;;2.05;;
11486;SDS011;10510;47.942;9.442;2023-04-15T03:51:51;4.05;;;2.33;;
11486;SDS011;10510;47.942;9.442;2023-04-15T03:53:52;3.85;;;2.08;;
11486;SDS011;10510;47.942;9.442;2023-04-15T03:55:52;5.85;;;1.73;;
11486;SDS011;10510;47.942;9.442;2023-04-15T03:57:52;5.47;;;1.90;;
11486;SDS011;10510;47.942;9.442;2023-04-15T03:59:52;3.53;;;1.73;;
11486;SDS011;10510;47.942;9.442;2023-04-15T04:01:53;5.97;;;2.33;;
11486;SDS011;10510;47.942;9.442;2023-04-15T04:03:53;3.05;;;1.60;;
11486;SDS011;10510;47.942;9.442;2023-04-15T04:05:53;5.53;;;1.80;;
11486;SDS011;10510;47.942;9.442;2023-04-15T04:07:53;5.78;;;1.92;;
11486;SDS011;10510;47.942;9.442;2023-04-15T04:09:55;3.22;;;1.50;;
11486;SDS011;10510;47.942;9.442;2023-04-15T04:11:56;6.03;;;2.28;;
11486;SDS011;10510;47.942;9.442;2023-04-15T04:13:56;11.70;;;2.42;;
11486;SDS011;10510;47.942;9.442;2023-04-15T04:15:57;4.32;;;1.85;;
11486;SDS011;10510;47.942;9.442;2023-04-15T04:17:57;5.75;;;2.08;;
11486;SDS011;10510;47.942;9.442;2023-04-15T04:19:57;12.50;;;2.30;;
11486;SDS011;10510;47.942;9.442;2023-04-15T04:21:57;4.97;;;1.92;;
11486;SDS011;10510;47.942;9.442;2023-04-15T04:23:58;3.60;;;2.13;;
11486;SDS011;10510;47.942;9.442;2023-04-15T04:25:58;11.52;;;3.60;;
11486;SDS011;10510;47.942;9.442;2023-04-15T04:27:58;21.13;;;7.22;;
11486;SDS011;10510;47.942;9.442;2023-04-15T04:29:59;8.20;;;3.33;;
11486;SDS011;10510;47.942;9.442;2023-04-15T04:31:59;24.80;;;8.07;;
11486;SDS011;10510;47.942;9.442;2023-04-15T04:34:00;6.53;;;3.47;;
11486;SDS011;10510;47.942;9.442;2023-04-15T04:36:00;7.35;;;3.28;;
11486;SDS011;10510;47.942;9.442;2023-04-15T04:38:00;4.82;;;2.70;;
11486;SDS011;10510;47.942;9.442;2023-04-15T04:40:01;17.02;;;5.57;;
11486;SDS011;10510;47.942;9.442;2023-04-15T04:42:01;15.23;;;6.70;;
11486;SDS011;10510;47.942;9.442;2023-04-15T04:44:01;9.68;;;4.15;;
11486;SDS011;10510;47.942;9.442;2023-04-15T04:46:02;13.32;;;4.85;;
11486;SDS011;10510;47.942;9.442;2023-04-15T04:48:02;15.38;;;5.70;;
11486;SDS011;10510;47.942;9.442;2023-04-15T04:50:06;10.20;;;5.10;;
11486;SDS011;10510;47.942;9.442;2023-04-15T04:52:07;9.68;;;4.75;;
11486;SDS011;10510;47.942;9.442;2023-04-15T04:54:07;7.55;;;4.20;;
11486;SDS011;10510;47.942;9.442;2023-04-15T04:56:08;10.48;;;3.97;;
11486;SDS011;10510;47.942;9.442;2023-04-15T04:58:08;9.52;;;4.22;;
11486;SDS011;10510;47.942;9.442;2023-04-15T05:00:09;8.32;;;3.55;;
11486;SDS011;10510;47.942;9.442;2023-04-15T05:02:09;7.93;;;3.40;;
11486;SDS011;10510;47.942;9.442;2023-04-15T05:04:10;7.45;;;3.42;;
11486;SDS011;10510;47.942;9.442;2023-04-15T05:06:10;15.45;;;4.32;;
11486;SDS011;10510;47.942;9.442;2023-04-15T05:08:10;11.73;;;3.72;;
11486;SDS011;10510;47.942;9.442;2023-04-15T05:10:12;10.70;;;3.88;;
11486;SDS011;10510;47.942;9.442;2023-04-15T05:12:14;10.95;;;3.70;;
11486;SDS011;10510;47.942;9.442;2023-04-15T05:14:14;10.45;;;3.40;;
11486;SDS011;10510;47.942;9.442;2023-04-15T05:16:15;10.23;;;3.42;;
11486;SDS011;10510;47.942;9.442;2023-04-15T05:18:15;3.15;;;2.22;;
11486;SDS011;10510;47.942;9.442;2023-04-15T05:20:16;7.65;;;2.40;;
11486;SDS011;10510;47.942;9.442;2023-04-15T05:22:17;6.43;;;3.15;;
11486;SDS011;10510;47.942;9.442;2023-04-15T05:24:17;6.07;;;2.78;;
11486;SDS011;10510;47.942;9.442;2023-04-15T05:26:17;7.15;;;2.83;;
11486;SDS011;10510;47.942;9.442;2023-04-15T05:28:17;5.03;;;2.72;;
11486;SDS011;10510;47.942;9.442;2023-04-15T05:30:18;6.72;;;3.47;;
11486;SDS011;10510;47.942;9.442;2023-04-15T05:32:18;9.02;;;3.25;;
11486;SDS011;10510;47.942;9.442;2023-04-15T05:34:18;7.53;;;2.42;;
11486;SDS011;10510;47.942;9.442;2023-04-15T05:36:19;4.82;;;2.45;;
11486;SDS011;10510;47.942;9.442;2023-04-15T05:38:20;6.90;;;2.38;;
11486;SDS011;10510;47.942;9.442;2023-04-15T05:40:20;7.22;;;2.85;;
11486;SDS011;10510;47.942;9.442;2023-04-15T05:42:20;5.53;;;3.40;;
11486;SDS011;10510;47.942;9.442;2023-04-15T05:44:20;5.28;;;2.67;;
11486;SDS011;10510;47.942;9.442;2023-04-15T05:46:21;7.00;;;2.63;;
11486;SDS011;10510;47.942;9.442;2023-04-15T05:48:21;7.03;;;2.90;;
11486;SDS011;10510;47.942;9.442;2023-04-15T05:50:22;5.95;;;3.15;;
11486;SDS011;10510;47.942;9.442;2023-04-15T05:52:22;9.15;;;2.92;;
11486;SDS011;10510;47.942;9.442;2023-04-15T05:54:22;6.60;;;3.38;;
11486;SDS011;10510;47.942;9.442;2023-04-15T05:56:22;7.90;;;3.00;;
11486;SDS011;10510;47.942;9.442;2023-04-15T05:58:23;11.40;;;3.33;;
11486;SDS011;10510;47.942;9.442;2023-04-15T06:00:24;7.15;;;3.90;;
11486;SDS011;10510;47.942;9.442;2023-04-15T06:02:24;9.68;;;4.00;;
11486;SDS011;10510;47.942;9.442;2023-04-15T06:04:25;7.22;;;3.58;;
11486;SDS011;10510;47.942;9.442;2023-04-15T06:06:25;6.32;;;3.20;;
11486;SDS011;10510;47.942;9.442;2023-04-15T06:08:26;6.68;;;3.15;;
11486;SDS011;10510;47.942;9.442;2023-04-15T06:10:26;6.05;;;3.00;;
11486;SDS011;10510;47.942;9.442;2023-04-15T06:12:27;9.60;;;3.20;;
11486;SDS011;10510;47.942;9.442;2023-04-15T06:14:27;9.88;;;3.90;;
11486;SDS011;10510;47.942;9.442;2023-04-15T06:16:27;6.60;;;2.90;;
11486;SDS011;10510;47.942;9.442;2023-04-15T06:18:28;5.97;;;2.97;;
11486;SDS011;10510;47.942;9.442;2023-04-15T06:20:28;11.85;;;3.53;;
11486;SDS011;10510;47.942;9.442;2023-04-15T06:22:29;7.07;;;3.58;;
11486;SDS011;10510;47.942;9.442;2023-04-15T06:24:29;6.97;;;3.50;;
11486;SDS011;10510;47.942;9.442;2023-04-15T06:26:29;10.80;;;3.75;;
11486;SDS011;10510;47.942;9.442;2023-04-15T06:28:30;8.82;;;4.50;;
11486;SDS011;10510;47.942;9.442;2023-04-15T06:30:30;11.32;;;4.53;;
11486;SDS011;10510;47.942;9.442;2023-04-15T06:32:31;13.55;;;5.10;;
11486;SDS011;10510;47.942;9.442;2023-04-15T06:34:32;11.68;;;5.07;;
11486;SDS011;10510;47.942;9.442;2023-04-15T06:36:32;19.83;;;5.35;;
11486;SDS011;10510;47.942;9.442;2023-04-15T06:38:32;18.50;;;8.55;;
11486;SDS011;10510;47.942;9.442;2023-04-15T06:40:33;18.58;;;6.78;;
11486;SDS011;10510;47.942;9.442;2023-04-15T06:42:33;9.57;;;4.25;;
11486;SDS011;10510;47.942;9.442;2023-04-15T06:44:34;11.57;;;5.00;;
11486;SDS011;10510;47.942;9.442;2023-04-15T06:46:36;10.27;;;4.20;;
11486;SDS011;10510;47.942;9.442;2023-04-15T06:48:36;12.38;;;5.10;;
11486;SDS011;10510;47.942;9.442;2023-04-15T06:50:37;10.98;;;5.38;;
11486;SDS011;10510;47.942;9.442;2023-04-15T06:52:37;14.40;;;5.40;;
11486;SDS011;10510;47.942;9.442;2023-04-15T06:54:37;8.50;;;3.95;;
11486;SDS011;10510;47.942;9.442;2023-04-15T06:56:37;11.15;;;4.20;;
11486;SDS011;10510;47.942;9.442;2023-04-15T06:58:38;14.27;;;6.93;;
11486;SDS011;10510;47.942;9.442;2023-04-15T07:00:38;10.85;;;3.72;;
11486;SDS011;10510;47.942;9.442;2023-04-15T07:02:39;15.38;;;5.10;;
11486;SDS011;10510;47.942;9.442;2023-04-15T07:04:39;12.20;;;5.97;;
11486;SDS011;10510;47.942;9.442;2023-04-15T07:06:40;8.27;;;3.75;;
11486;SDS011;10510;47.942;9.442;2023-04-15T07:08:41;5.05;;;2.30;;
11486;SDS011;10510;47.942;9.442;2023-04-15T07:10:41;4.40;;;2.08;;
11486;SDS011;10510;47.942;9.442;2023-04-15T07:12:42;4.90;;;2.47;;
11486;SDS011;10510;47.942;9.442;2023-04-15T07:14:42;3.80;;;2.47;;
11486;SDS011;10510;47.942;9.442;2023-04-15T07:16:42;6.50;;;2.92;;
11486;SDS011;10510;47.942;9.442;2023-04-15T07:18:42;5.30;;;2.42;;
11486;SDS011;10510;47.942;9.442;2023-04-15T07:20:43;6.65;;;2.40;;
11486;SDS011;10510;47.942;9.442;2023-04-15T07:22:43;3.58;;;2.28;;
11486;SDS011;10510;47.942;9.442;2023-04-15T07:24:43;5.45;;;2.03;;
11486;SDS011;10510;47.942;9.442;2023-04-15T07:26:43;7.20;;;2.10;;
11486;SDS011;10510;47.942;9.442;2023-04-15T07:28:44;8.40;;;2.67;;
11486;SDS011;10510;47.942;9.442;2023-04-15T07:30:45;5.10;;;2.92;;
11486;SDS011;10510;47.942;9.442;2023-04-15T07:32:45;3.85;;;1.98;;
11486;SDS011;10510;47.942;9.442;2023-04-15T07:34:45;5.65;;;2.10;;
11486;SDS011;10510;47.942;9.442;2023-04-15T07:36:46;4.85;;;2.30;;
11486;SDS011;10510;47.942;9.442;2023-04-15T07:38:49;5.03;;;1.95;;
11486;SDS011;10510;47.942;9.442;2023-04-15T07:40:49;3.00;;;1.98;;
11486;SDS011;10510;47.942;9.442;2023-04-15T07:42:50;4.53;;;1.60;;
11486;SDS011;10510;47.942;9.442;2023-04-15T07:44:50;5.10;;;2.15;;
11486;SDS011;10510;47.942;9.442;2023-04-15T07:46:50;9.50;;;2.03;;
11486;SDS011;10510;47.942;9.442;2023-04-15T07:48:51;9.07;;;2.22;;
11486;SDS011;10510;47.942;9.442;2023-04-15T07:50:52;3.65;;;1.67;;
11486;SDS011;10510;47.942;9.442;2023-04-15T07:52:52;4.88;;;2.03;;
11486;SDS011;10510;47.942;9.442;2023-04-15T07:54:53;2.85;;;1.95;;
11486;SDS011;10510;47.942;9.442;2023-04-15T07:56:53;4.72;;;1.70;;
11486;SDS011;10510;47.942;9.442;2023-04-15T07:58:54;5.53;;;1.90;;
11486;SDS011;10510;47.942;9.442;2023-04-15T08:00:54;1.55;;;1.40;;
11486;SDS011;10510;47.942;9.442;2023-04-15T08:02:55;4.20;;;1.55;;
11486;SDS011;10510;47.942;9.442;2023-04-15T08:04:56;5.47;;;2.00;;
11486;SDS011;10510;47.942;9.442;2023-04-15T08:06:56;3.28;;;1.80;;
11486;SDS011;10510;47.942;9.442;2023-04-15T08:08:57;4.10;;;1.90;;
11486;SDS011;10510;47.942;9.442;2023-04-15T08:10:57;2.67;;;1.70;;
11486;SDS011;10510;47.942;9.442;2023-04-15T08:12:57;6.20;;;1.77;;
11486;SDS011;10510;47.942;9.442;2023-04-15T08:14:58;7.72;;;2.25;;
11486;SDS011;10510;47.942;9.442;2023-04-15T08:16:59;2.53;;;1.67;;
11486;SDS011;10510;47.942;9.442;2023-04-15T08:18:59;5.28;;;1.85;;
11486;SDS011;10510;47.942;9.442;2023-04-15T08:20:59;5.35;;;1.50;;
11486;SDS011;10510;47.942;9.442;2023-04-15T08:22:59;6.45;;;2.10;;
11486;SDS011;10510;47.942;9.442;2023-04-15T08:25:00;2.63;;;1.45;;
11486;SDS011;10510;47.942;9.442;2023-04-15T08:27:00;8.43;;;1.88;;
11486;SDS011;10510;47.942;9.442;2023-04-15T08:29:03;7.80;;;2.13;;
11486;SDS011;10510;47.942;9.442;2023-04-15T08:31:03;3.70;;;1.20;;
11486;SDS011;10510;47.942;9.442;2023-04-15T08:33:04;6.82;;;1.30;;
11486;SDS011;10510;47.942;9.442;2023-04-15T08:35:04;2.28;;;1.13;;
11486;SDS011;10510;47.942;9.442;2023-04-15T08:37:05;6.47;;;1.35;;
11486;SDS011;10510;47.942;9.442;2023-04-15T08:39:05;6.28;;;1.23;;
11486;SDS011;10510;47.942;9.442;2023-04-15T08:41:06;1.90;;;1.20;;
11486;SDS011;10510;47.942;9.442;2023-04-15T08:43:14;3.75;;;1.63;;
11486;SDS011;10510;47.942;9.442;2023-04-15T08:45:27;4.43;;;1.83;;
11486;SDS011;10510;47.942;9.442;2023-04-15T08:47:29;4.93;;;1.80;;
11486;SDS011;10510;47.942;9.442;2023-04-15T08:49:33;4.13;;;1.63;;
11486;SDS011;10510;47.942;9.442;2023-04-15T08:51:39;4.28;;;1.60;;
11486;SDS011;10510;47.942;9.442;2023-04-15T08:53:40;5.32;;;2.47;;
11486;SDS011;10510;47.942;9.442;2023-04-15T08:55:43;7.25;;;2.63;;
11486;SDS011;10510;47.942;9.442;2023-04-15T08:57:44;3.75;;;1.80;;
11486;SDS011;10510;47.942;9.442;2023-04-15T08:59:45;6.65;;;1.60;;
11486;SDS011;10510;47.942;9.442;2023-04-15T09:01:46;10.73;;;3.50;;
11486;SDS011;10510;47.942;9.442;2023-04-15T09:03:48;5.28;;;2.70;;
11486;SDS011;10510;47.942;9.442;2023-04-15T09:05:49;4.28;;;1.50;;
11486;SDS011;10510;47.942;9.442;2023-04-15T09:07:50;2.90;;;1.42;;
11486;SDS011;10510;47.942;9.442;2023-04-15T09:09:50;6.10;;;2.95;;
11486;SDS011;10510;47.942;9.442;2023-04-15T09:11:51;4.38;;;1.52;;
11486;SDS011;10510;47.942;9.442;2023-04-15T09:13:52;3.13;;;1.60;;
11486;SDS011;10510;47.942;9.442;2023-04-15T09:15:52;5.97;;;2.15;;
11486;SDS011;10510;47.942;9.442;2023-04-15T09:17:52;5.57;;;1.25;;
11486;SDS011;10510;47.942;9.442;2023-04-15T09:20:06;5.53;;;1.55;;
11486;SDS011;10510;47.942;9.442;2023-04-15T09:22:11;3.97;;;1.63;;
11486;SDS011;10510;47.942;9.442;2023-04-15T09:24:12;6.35;;;1.80;;
11486;SDS011;10510;47.942;9.442;2023-04-15T09:26:13;5.60;;;1.50;;
11486;SDS011;10510;47.942;9.442;2023-04-15T09:28:22;5.93;;;2.47;;
11486;SDS011;10510;47.942;9.442;2023-04-15T09:30:23;3.83;;;1.50;;
11486;SDS011;10510;47.942;9.442;2023-04-15T09:32:24;3.40;;;1.65;;
11486;SDS011;10510;47.942;9.442;2023-04-15T09:34:34;6.15;;;1.30;;
11486;SDS011;10510;47.942;9.442;2023-04-15T09:38:54;4.22;;;1.58;;
11486;SDS011;10510;47.942;9.442;2023-04-15T09:40:56;4.80;;;1.92;;
11486;SDS011;10510;47.942;9.442;2023-04-15T09:42:58;5.38;;;1.35;;
11486;SDS011;10510;47.942;9.442;2023-04-15T09:45:08;5.18;;;1.73;;
11486;SDS011;10510;47.942;9.442;2023-04-15T09:47:25;3.53;;;1.42;;
11486;SDS011;10510;47.942;9.442;2023-04-15T09:49:27;3.97;;;1.20;;
11486;SDS011;10510;47.942;9.442;2023-04-15T09:51:33;4.45;;;2.15;;
11486;SDS011;10510;47.942;9.442;2023-04-15T09:53:35;2.97;;;1.63;;
11486;SDS011;10510;47.942;9.442;2023-04-15T09:55:37;4.60;;;2.00;;
11486;SDS011;10510;47.942;9.442;2023-04-15T09:57:37;5.47;;;1.70;;
11486;SDS011;10510;47.942;9.442;2023-04-15T09:59:40;6.45;;;1.45;;
11486;SDS011;10510;47.942;9.442;2023-04-15T10:01:40;5.40;;;2.20;;
11486;SDS011;10510;47.942;9.442;2023-04-15T10:03:41;4.68;;;1.55;;
11486;SDS011;10510;47.942;9.442;2023-04-15T10:05:43;6.30;;;1.50;;
11486;SDS011;10510;47.942;9.442;2023-04-15T10:07:44;2.30;;;1.25;;
11486;SDS011;10510;47.942;9.442;2023-04-15T10:09:44;4.75;;;1.30;;
11486;SDS011;10510;47.942;9.442;2023-04-15T10:11:45;3.75;;;1.35;;
11486;SDS011;10510;47.942;9.442;2023-04-15T10:13:49;4.05;;;1.17;;
11486;SDS011;10510;47.942;9.442;2023-04-15T10:15:55;6.65;;;1.50;;
11486;SDS011;10510;47.942;9.442;2023-04-15T10:17:57;6.68;;;1.63;;
11486;SDS011;10510;47.942;9.442;2023-04-15T10:20:00;3.70;;;1.30;;
11486;SDS011;10510;47.942;9.442;2023-04-15T10:22:03;7.47;;;1.70;;
11486;SDS011;10510;47.942;9.442;2023-04-15T10:24:03;5.20;;;1.08;;
11486;SDS011;10510;47.942;9.442;2023-04-15T10:26:04;5.25;;;1.38;;
11486;SDS011;10510;47.942;9.442;2023-04-15T10:28:05;3.40;;;1.30;;
11486;SDS011;10510;47.942;9.442;2023-04-15T10:30:08;3.33;;;1.42;;
11486;SDS011;10510;47.942;9.442;2023-04-15T10:32:10;4.85;;;1.17;;
11486;SDS011;10510;47.942;9.442;2023-04-15T10:34:12;5.25;;;3.13;;
11486;SDS011;10510;47.942;9.442;2023-04-15T10:36:14;6.07;;;1.92;;
11486;SDS011;10510;47.942;9.442;2023-04-15T10:38:35;4.20;;;1.33;;
11486;SDS011;10510;47.942;9.442;2023-04-15T10:40:37;2.53;;;1.25;;
11486;SDS011;10510;47.942;9.442;2023-04-15T10:42:38;11.30;;;1.65;;
11486;SDS011;10510;47.942;9.442;2023-04-15T10:44:38;2.45;;;1.15;;
11486;SDS011;10510;47.942;9.442;2023-04-15T10:46:44;3.38;;;1.02;;
11486;SDS011;10510;47.942;9.442;2023-04-15T10:48:47;3.78;;;0.93;;
11486;SDS011;10510;47.942;9.442;2023-04-15T10:51:00;3.67;;;1.20;;
11486;SDS011;10510;47.942;9.442;2023-04-15T10:53:02;6.10;;;1.33;;
11486;SDS011;10510;47.942;9.442;2023-04-15T10:57:20;4.00;;;1.30;;
11486;SDS011;10510;47.942;9.442;2023-04-15T10:59:22;2.63;;;1.25;;
11486;SDS011;10510;47.942;9.442;2023-04-15T11:01:22;9.25;;;1.63;;
11486;SDS011;10510;47.942;9.442;2023-04-15T11:03:53;7.75;;;2.08;;
11486;SDS011;10510;47.942;9.442;2023-04-15T11:05:54;6.47;;;2.03;;
11486;SDS011;10510;47.942;9.442;2023-04-15T11:07:55;5.82;;;1.90;;
11486;SDS011;10510;47.942;9.442;2023-04-15T11:09:56;8.45;;;2.22;;
11486;SDS011;10510;47.942;9.442;2023-04-15T11:12:06;4.00;;;1.40;;
11486;SDS011;10510;47.942;9.442;2023-04-15T11:14:13;2.00;;;1.00;;
11486;SDS011;10510;47.942;9.442;2023-04-15T11:16:15;2.45;;;0.93;;
11486;SDS011;10510;47.942;9.442;2023-04-15T11:18:25;1.20;;;0.60;;
11486;SDS011;10510;47.942;9.442;2023-04-15T11:20:27;3.28;;;1.30;;
11486;SDS011;10510;47.942;9.442;2023-04-15T11:22:28;2.97;;;1.08;;
11486;SDS011;10510;47.942;9.442;2023-04-15T11:24:28;3.85;;;1.00;;
11486;SDS011;10510;47.942;9.442;2023-04-15T11:26:29;2.10;;;1.00;;
11486;SDS011;10510;47.942;9.442;2023-04-15T11:28:30;4.50;;;1.33;;
11486;SDS011;10510;47.942;9.442;2023-04-15T11:30:34;5.85;;;1.17;;
11486;SDS011;10510;47.942;9.442;2023-04-15T11:32:36;2.85;;;1.25;;
11486;SDS011;10510;47.942;9.442;2023-04-15T11:34:36;4.43;;;1.30;;
11486;SDS011;10510;47.942;9.442;2023-04-15T11:36:36;3.67;;;1.10;;
11486;SDS011;10510;47.942;9.442;2023-04-15T11:38:40;5.10;;;1.20;;
11486;SDS011;10510;47.942;9.442;2023-04-15T11:40:42;5.97;;;2.28;;
11486;SDS011;10510;47.942;9.442;2023-04-15T11:42:43;5.80;;;2.00;;
11486;SDS011;10510;47.942;9.442;2023-04-15T11:44:43;4.03;;;1.23;;
11486;SDS011;10510;47.942;9.442;2023-04-15T11:46:44;6.03;;;1.85;;
11486;SDS011;10510;47.942;9.442;2023-04-15T11:48:44;12.60;;;4.47;;
11486;SDS011;10510;47.942;9.442;2023-04-15T11:50:51;6.07;;;1.50;;
11486;SDS011;10510;47.942;9.442;2023-04-15T11:53:00;8.70;;;2.80;;
11486;SDS011;10510;47.942;9.442;2023-04-15T11:55:02;9.00;;;3.95;;
11486;SDS011;10510;47.942;9.442;2023-04-15T11:57:03;6.28;;;2.47;;
11486;SDS011;10510;47.942;9.442;2023-04-15T11:59:03;3.30;;;0.90;;
11486;SDS011;10510;47.942;9.442;2023-04-15T12:01:04;9.07;;;3.20;;
11486;SDS011;10510;47.942;9.442;2023-04-15T12:03:39;2.67;;;1.30;;
11486;SDS011;10510;47.942;9.442;2023-04-15T12:08:18;2.08;;;0.85;;
11486;SDS011;10510;47.942;9.442;2023-04-15T12:10:18;3.67;;;0.80;;
11486;SDS011;10510;47.942;9.442;2023-04-15T12:12:18;4.88;;;1.15;;
11486;SDS011;10510;47.942;9.442;2023-04-15T12:14:28;2.72;;;1.23;;
11486;SDS011;10510;47.942;9.442;2023-04-15T12:16:30;5.70;;;1.00;;